createdAt,value
2022-08-07T00:00:31.171Z,6.07
2022-08-07T00:02:57.745Z,6.57
2022-08-07T00:05:25.085Z,7.30
2022-08-07T00:07:59.797Z,7.97
2022-08-07T00:10:29.842Z,9.18
2022-08-07T00:13:02.285Z,6.82
2022-08-07T00:15:46.457Z,8.05
2022-08-07T00:18:21.003Z,7.10
2022-08-07T00:20:51.265Z,6.82
2022-08-07T00:23:18.643Z,6.78
2022-08-07T00:25:52.090Z,6.60
2022-08-07T00:28:33.187Z,6.70
2022-08-07T00:31:12.813Z,7.00
2022-08-07T00:33:43.408Z,7.03
2022-08-07T00:36:14.115Z,7.15
2022-08-07T00:38:40.835Z,7.25
2022-08-07T00:41:10.040Z,6.85
2022-08-07T00:44:01.535Z,7.03
2022-08-07T00:46:29.043Z,7.35
2022-08-07T00:48:55.791Z,6.82
2022-08-07T00:51:22.327Z,7.70
2022-08-07T00:53:55.892Z,7.18
2022-08-07T00:56:30.247Z,6.75
2022-08-07T00:59:01.315Z,6.97
2022-08-07T01:01:28.620Z,6.22
2022-08-07T01:04:09.074Z,6.82
2022-08-07T01:06:35.662Z,7.72
2022-08-07T01:09:03.532Z,7.43
2022-08-07T01:12:23.903Z,6.60
2022-08-07T01:14:21.134Z,6.72
2022-08-07T01:16:49.007Z,8.30
2022-08-07T01:19:19.644Z,7.13
2022-08-07T01:21:53.376Z,6.75
2022-08-07T01:24:24.839Z,7.32
2022-08-07T01:26:52.676Z,6.90
2022-08-07T01:29:24.165Z,6.82
2022-08-07T01:31:55.699Z,6.85
2022-08-07T01:34:30.809Z,7.28
2022-08-07T01:37:00.697Z,7.70
2022-08-07T01:39:41.350Z,8.40
2022-08-07T01:42:38.411Z,8.05
2022-08-07T01:45:18.312Z,8.02
2022-08-07T01:48:20.529Z,7.88
2022-08-07T01:50:43.075Z,7.78
2022-08-07T01:53:20.989Z,8.07
2022-08-07T01:55:58.613Z,8.20
2022-08-07T02:01:59.236Z,8.10
2022-08-07T02:04:03.296Z,7.60
2022-08-07T02:06:35.510Z,7.53
2022-08-07T02:09:07.628Z,7.65
2022-08-07T02:12:03.747Z,7.53
2022-08-07T02:14:35.847Z,8.25
2022-08-07T02:17:13.027Z,7.70
2022-08-07T02:20:04.473Z,7.53
2022-08-07T02:22:33.110Z,8.15
2022-08-07T02:25:00.752Z,8.30
2022-08-07T02:27:34.116Z,7.18
2022-08-07T02:30:07.120Z,7.30
2022-08-07T02:32:39.400Z,7.68
2022-08-07T02:36:30.672Z,7.70
2022-08-07T02:38:13.859Z,7.70
2022-08-07T02:40:44.198Z,8.00
2022-08-07T02:43:15.363Z,8.15
2022-08-07T02:45:58.955Z,7.75
2022-08-07T02:48:30.898Z,8.02
2022-08-07T02:51:06.613Z,7.88
2022-08-07T02:53:38.853Z,7.47
2022-08-07T02:56:21.128Z,8.25
2022-08-07T02:58:51.548Z,8.18
2022-08-07T03:01:36.008Z,8.32
2022-08-07T03:04:12.600Z,8.60
2022-08-07T03:06:48.126Z,8.35
2022-08-07T03:09:42.273Z,8.02
2022-08-07T03:12:05.871Z,7.80
2022-08-07T03:14:36.331Z,7.80
2022-08-07T03:17:04.928Z,8.32
2022-08-07T03:19:37.137Z,8.27
2022-08-07T03:22:06.979Z,8.13
2022-08-07T03:24:34.862Z,8.20
2022-08-07T03:27:06.179Z,7.97
2022-08-07T03:29:53.271Z,7.72
2022-08-07T03:32:26.932Z,7.82
2022-08-07T03:37:53.982Z,8.10
2022-08-07T03:40:24.189Z,8.15
2022-08-07T03:43:00.582Z,8.35
2022-08-07T03:45:31.387Z,7.63
2022-08-07T03:48:10.156Z,8.23
2022-08-07T03:50:38.884Z,11.70
2022-08-07T03:53:10.395Z,8.25
2022-08-07T03:55:57.378Z,8.75
2022-08-07T03:59:05.587Z,8.02
2022-08-07T04:01:14.485Z,9.10
2022-08-07T04:03:49.697Z,9.30
2022-08-07T04:06:36.358Z,8.82
2022-08-07T04:09:15.329Z,10.13
2022-08-07T04:12:25.701Z,9.50
2022-08-07T04:14:38.531Z,9.30
2022-08-07T04:18:11.241Z,10.75
2022-08-07T04:19:58.738Z,9.77
2022-08-07T04:22:29.091Z,10.50
2022-08-07T04:27:35.519Z,10.93
2022-08-07T04:30:11.748Z,10.50
2022-08-07T04:32:58.235Z,11.07
2022-08-07T04:35:27.356Z,10.93
2022-08-07T04:38:06.808Z,10.60
2022-08-07T04:40:51.465Z,11.10
2022-08-07T04:44:11.331Z,11.45
2022-08-07T04:46:34.239Z,11.77
2022-08-07T04:49:38.792Z,11.55
2022-08-07T04:52:51.270Z,11.20
2022-08-07T04:58:24.118Z,11.90
2022-08-07T04:58:49.568Z,11.25
2022-08-07T05:01:30.784Z,11.75
2022-08-07T05:04:56.977Z,11.35
2022-08-07T05:07:55.548Z,11.38
2022-08-07T05:10:33.186Z,11.25
2022-08-07T05:14:55.126Z,11.27
2022-08-07T05:16:07.243Z,11.57
2022-08-07T05:18:39.997Z,11.75
2022-08-07T05:21:11.743Z,12.02
2022-08-07T05:23:48.179Z,11.80
2022-08-07T05:26:24.044Z,11.65
2022-08-07T05:28:59.084Z,12.05
2022-08-07T05:31:37.811Z,12.25
2022-08-07T05:34:12.469Z,12.93
2022-08-07T05:36:48.975Z,12.90
2022-08-07T05:40:14.346Z,11.85
2022-08-07T05:42:33.362Z,12.43
2022-08-07T05:45:14.092Z,12.73
2022-08-07T05:48:01.937Z,13.13
2022-08-07T05:50:34.237Z,12.98
2022-08-07T05:53:02.536Z,12.77
2022-08-07T05:56:03.004Z,12.57
2022-08-07T05:58:36.146Z,12.38
2022-08-07T06:01:05.966Z,13.35
2022-08-07T06:03:54.030Z,12.45
2022-08-07T06:06:29.854Z,12.98
2022-08-07T06:09:04.655Z,12.52
2022-08-07T06:11:33.268Z,13.05
2022-08-07T06:14:12.999Z,12.43
2022-08-07T06:16:56.341Z,12.63
2022-08-07T06:19:51.819Z,12.98
2022-08-07T06:22:23.333Z,12.80
2022-08-07T06:25:01.236Z,12.63
2022-08-07T06:27:59.798Z,12.43
2022-08-07T06:30:31.768Z,12.80
2022-08-07T06:33:03.729Z,12.98
2022-08-07T06:35:45.470Z,12.85
2022-08-07T06:38:20.123Z,13.50
2022-08-07T06:40:53.346Z,12.90
2022-08-07T06:43:24.831Z,13.30
2022-08-07T06:46:11.587Z,12.80
2022-08-07T06:48:41.978Z,13.90
2022-08-07T06:51:30.934Z,13.20
2022-08-07T06:55:32.641Z,13.10
2022-08-07T06:56:51.407Z,13.15
2022-08-07T07:00:12.146Z,13.05
2022-08-07T07:02:48.223Z,13.30
2022-08-07T07:05:13.816Z,13.60
2022-08-07T07:08:06.334Z,13.35
2022-08-07T07:10:35.327Z,12.95
2022-08-07T07:13:17.020Z,12.68
2022-08-07T07:16:09.876Z,14.07
2022-08-07T07:18:47.889Z,13.63
2022-08-07T07:22:04.193Z,13.23
2022-08-07T07:24:23.056Z,12.88
2022-08-07T07:26:53.929Z,14.65
2022-08-07T07:29:39.837Z,14.07
2022-08-07T07:32:14.056Z,12.27
2022-08-07T07:34:48.599Z,12.13
2022-08-07T07:37:44.469Z,11.50
2022-08-07T07:40:10.214Z,11.90
2022-08-07T07:42:43.849Z,11.27
2022-08-07T07:45:19.157Z,11.30
2022-08-07T07:47:53.340Z,12.48
2022-08-07T07:50:33.878Z,11.93
2022-08-07T07:53:20.535Z,11.20
2022-08-07T07:55:57.919Z,11.60
2022-08-07T07:58:40.339Z,11.82
2022-08-07T08:02:02.513Z,12.73
2022-08-07T08:04:10.511Z,12.00
2022-08-07T08:06:51.008Z,11.77
2022-08-07T08:09:22.716Z,11.30
2022-08-07T08:12:03.006Z,11.87
2022-08-07T08:14:34.475Z,12.30
2022-08-07T08:17:55.708Z,11.65
2022-08-07T08:20:17.118Z,11.40
2022-08-07T08:23:08.462Z,10.70
2022-08-07T08:25:58.212Z,10.30
2022-08-07T08:28:38.720Z,10.98
2022-08-07T08:31:14.862Z,11.15
2022-08-07T08:33:49.630Z,10.63
2022-08-07T08:36:29.614Z,11.23
2022-08-07T08:39:01.949Z,10.95
2022-08-07T08:41:58.649Z,10.75
2022-08-07T08:44:37.280Z,9.52
2022-08-07T08:47:47.291Z,9.70
2022-08-07T08:50:38.782Z,10.52
2022-08-07T08:53:31.385Z,9.82
2022-08-07T08:56:12.149Z,9.82
2022-08-07T08:58:54.314Z,10.37
2022-08-07T09:01:40.185Z,9.10
2022-08-07T09:04:38.813Z,9.90
2022-08-07T09:07:34.151Z,9.57
2022-08-07T09:10:34.011Z,9.68
2022-08-07T09:13:14.812Z,10.02
2022-08-07T09:16:22.154Z,8.98
2022-08-07T09:19:51.608Z,9.30
2022-08-07T09:24:28.837Z,9.07
2022-08-07T09:25:17.395Z,8.32
2022-08-07T09:28:05.042Z,8.23
2022-08-07T09:30:55.109Z,7.80
2022-08-07T09:33:40.827Z,8.57
2022-08-07T09:36:20.170Z,8.05
2022-08-07T09:38:54.556Z,7.55
2022-08-07T09:41:58.633Z,7.70
2022-08-07T09:44:58.641Z,8.07
2022-08-07T09:47:58.326Z,7.20
2022-08-07T09:50:46.225Z,7.85
2022-08-07T09:53:15.620Z,7.85
2022-08-07T09:56:03.933Z,6.95
2022-08-07T09:58:51.121Z,6.35
2022-08-07T10:01:59.120Z,7.05
2022-08-07T10:04:47.612Z,6.65
2022-08-07T10:08:00.817Z,6.22
2022-08-07T10:10:29.968Z,6.70
2022-08-07T10:13:55.470Z,6.90
2022-08-07T10:16:34.665Z,6.95
2022-08-07T10:19:21.192Z,7.35
2022-08-07T10:22:16.003Z,7.13
2022-08-07T10:24:55.882Z,7.05
2022-08-07T10:27:51.340Z,6.82
2022-08-07T10:30:35.192Z,6.55
2022-08-07T10:33:23.736Z,6.20
2022-08-07T10:37:05.520Z,7.15
2022-08-07T10:40:30.254Z,6.90
2022-08-07T10:43:19.360Z,6.25
2022-08-07T10:46:00.667Z,6.60
2022-08-07T10:48:54.852Z,9.48
2022-08-07T10:51:39.235Z,6.38
2022-08-07T10:54:42.732Z,6.20
2022-08-07T10:57:34.020Z,6.03
2022-08-07T11:00:39.466Z,5.70
2022-08-07T11:03:51.216Z,5.65
2022-08-07T11:06:28.849Z,6.25
2022-08-07T11:10:07.174Z,5.13
2022-08-07T11:12:43.338Z,5.30
2022-08-07T11:15:17.879Z,5.68
2022-08-07T11:17:56.500Z,5.50
2022-08-07T11:20:56.080Z,6.00
2022-08-07T11:23:45.353Z,5.47
2022-08-07T11:26:21.928Z,6.20
2022-08-07T11:28:58.756Z,5.78
2022-08-07T11:31:41.754Z,7.05
2022-08-07T11:34:24.686Z,5.80
2022-08-07T11:37:11.590Z,6.22
2022-08-07T11:40:02.016Z,6.03
2022-08-07T11:42:40.843Z,5.63
2022-08-07T11:45:20.348Z,5.72
2022-08-07T11:48:02.622Z,5.45
2022-08-07T11:50:57.827Z,5.55
2022-08-07T11:53:35.350Z,5.43
2022-08-07T11:56:26.853Z,5.40
2022-08-07T12:00:12.465Z,5.85
2022-08-07T12:02:52.195Z,5.15
2022-08-07T12:05:49.178Z,5.22
2022-08-07T12:08:34.562Z,5.40
2022-08-07T12:11:21.019Z,5.38
2022-08-07T12:14:19.126Z,5.28
2022-08-07T12:16:53.171Z,5.20
2022-08-07T12:19:35.333Z,5.18
2022-08-07T12:22:38.898Z,4.85
2022-08-07T12:26:00.939Z,11.85
2022-08-07T12:28:09.624Z,4.88
2022-08-07T12:30:46.676Z,5.45
2022-08-07T12:33:28.567Z,5.30
2022-08-07T12:36:02.164Z,5.28
2022-08-07T12:38:42.774Z,5.35
2022-08-07T12:41:11.468Z,5.10
2022-08-07T12:43:58.767Z,5.13
2022-08-07T12:46:55.412Z,5.30
2022-08-07T12:49:51.044Z,5.20
2022-08-07T12:52:59.223Z,5.35
2022-08-07T12:55:41.361Z,5.50
2022-08-07T12:58:35.421Z,4.65
2022-08-07T13:01:28.048Z,4.75
2022-08-07T13:04:32.652Z,5.05
2022-08-07T13:08:12.050Z,4.93
2022-08-07T13:10:38.086Z,4.78
2022-08-07T13:13:48.630Z,5.03
2022-08-07T13:16:27.082Z,4.95
2022-08-07T13:19:21.732Z,4.97
2022-08-07T13:22:19.553Z,4.68
2022-08-07T13:25:02.484Z,4.45
2022-08-07T13:28:12.481Z,4.80
2022-08-07T13:30:48.673Z,4.60
2022-08-07T13:34:34.443Z,4.47
2022-08-07T13:36:39.744Z,4.25
2022-08-07T13:39:28.594Z,4.45
2022-08-07T13:42:14.616Z,4.40
2022-08-07T13:45:11.773Z,4.25
2022-08-07T13:48:05.879Z,4.10
2022-08-07T13:50:33.175Z,4.32
2022-08-07T13:53:05.205Z,4.47
2022-08-07T13:55:37.035Z,4.30
2022-08-07T13:58:56.144Z,4.30
2022-08-07T14:01:26.271Z,4.20
2022-08-07T14:04:06.929Z,4.13
2022-08-07T14:06:36.927Z,4.50
2022-08-07T14:09:16.998Z,4.10
2022-08-07T14:12:00.922Z,3.70
2022-08-07T14:14:42.020Z,3.97
2022-08-07T14:17:32.375Z,3.88
2022-08-07T14:20:40.153Z,3.58
2022-08-07T14:23:08.530Z,3.85
2022-08-07T14:25:47.942Z,4.15
2022-08-07T14:28:17.531Z,4.40
2022-08-07T14:30:52.123Z,4.22
2022-08-07T14:33:22.359Z,4.22
2022-08-07T14:38:30.750Z,4.10
2022-08-07T14:41:04.944Z,4.60
2022-08-07T14:43:58.617Z,4.20
2022-08-07T14:54:58.646Z,4.05
2022-08-07T14:57:54.677Z,4.03
2022-08-07T15:00:29.662Z,3.95
2022-08-07T15:02:59.345Z,4.05
2022-08-07T15:05:30.349Z,4.03
2022-08-07T15:07:59.925Z,4.32
2022-08-07T15:10:29.862Z,3.83
2022-08-07T15:13:01.673Z,3.78
2022-08-07T15:15:41.952Z,4.15
2022-08-07T15:18:14.479Z,3.63
2022-08-07T15:21:03.946Z,4.03
2022-08-07T15:26:36.242Z,4.05
2022-08-07T15:30:04.546Z,3.67
2022-08-07T15:31:57.749Z,4.10
2022-08-07T15:34:50.462Z,3.60
2022-08-07T15:37:28.705Z,3.55
2022-08-07T15:40:35.027Z,3.70
2022-08-07T15:43:10.834Z,4.00
2022-08-07T15:46:03.528Z,4.00
2022-08-07T15:54:16.669Z,4.07
2022-08-07T15:56:45.986Z,4.38
2022-08-07T15:59:17.354Z,4.00
2022-08-07T16:02:02.373Z,3.83
2022-08-07T16:04:32.920Z,4.30
2022-08-07T16:07:04.756Z,4.20
2022-08-07T16:13:17.738Z,4.45
2022-08-07T16:16:47.987Z,4.38
2022-08-07T16:19:42.653Z,4.38
2022-08-07T16:22:33.665Z,4.07
2022-08-07T16:25:52.612Z,3.95
2022-08-07T16:29:18.384Z,4.28
2022-08-07T16:31:50.901Z,4.25
2022-08-07T16:34:48.305Z,4.28
2022-08-07T16:38:05.230Z,4.60
2022-08-07T16:40:31.992Z,4.53
2022-08-07T16:44:05.552Z,4.60
2022-08-07T16:47:05.921Z,4.95
2022-08-07T16:50:20.777Z,4.90
2022-08-07T16:52:55.781Z,5.50
2022-08-07T16:55:29.176Z,5.45
2022-08-07T16:59:10.163Z,5.68
2022-08-07T17:01:41.147Z,5.65
2022-08-07T17:04:24.522Z,5.50
2022-08-07T17:07:03.447Z,5.60
2022-08-07T17:10:06.975Z,5.13
2022-08-07T17:12:48.125Z,5.60
2022-08-07T17:15:44.377Z,5.78
2022-08-07T17:18:38.413Z,5.68
2022-08-07T17:21:18.723Z,5.10
2022-08-07T17:23:54.805Z,5.05
2022-08-07T17:26:36.942Z,5.03
2022-08-07T17:30:15.931Z,5.63
2022-08-07T17:34:09.491Z,5.60
2022-08-07T17:36:13.653Z,5.20
2022-08-07T17:38:55.352Z,5.05
2022-08-07T17:42:02.664Z,4.88
2022-08-07T17:44:33.582Z,4.72
2022-08-07T17:47:38.554Z,4.70
2022-08-07T17:50:30.827Z,4.97
2022-08-07T17:53:08.073Z,4.93
2022-08-07T17:56:15.428Z,4.80
2022-08-07T17:58:56.843Z,5.00
2022-08-07T18:01:48.361Z,4.57
2022-08-07T18:04:34.857Z,4.80
2022-08-07T18:07:20.607Z,5.10
2022-08-07T18:10:06.110Z,4.60
2022-08-07T18:13:11.701Z,4.70
2022-08-07T18:16:12.470Z,4.63
2022-08-07T18:21:03.530Z,4.60
2022-08-07T18:22:02.725Z,4.57
2022-08-07T18:24:36.520Z,4.78
2022-08-07T18:27:12.493Z,4.90
2022-08-07T18:30:31.098Z,4.68
2022-08-07T18:33:15.591Z,4.57
2022-08-07T18:36:14.061Z,5.10
2022-08-07T18:40:06.482Z,4.75
2022-08-07T18:42:27.901Z,4.90
2022-08-07T18:45:40.257Z,5.22
2022-08-07T18:48:02.568Z,4.90
2022-08-07T18:50:39.456Z,4.90
2022-08-07T18:53:21.110Z,4.85
2022-08-07T18:56:07.641Z,5.15
2022-08-07T18:59:47.704Z,6.07
2022-08-07T19:02:42.335Z,5.07
2022-08-07T19:05:22.722Z,6.18
2022-08-07T19:07:57.522Z,5.00
2022-08-07T19:10:31.946Z,4.55
2022-08-07T19:13:23.079Z,4.80
2022-08-07T19:17:00.667Z,4.75
2022-08-07T19:19:42.987Z,5.25
2022-08-07T19:22:31.317Z,4.72
2022-08-07T19:25:06.432Z,5.10
2022-08-07T19:28:58.354Z,5.03
2022-08-07T19:31:01.927Z,4.20
2022-08-07T19:33:16.013Z,4.55
2022-08-07T19:35:53.685Z,4.55
2022-08-07T19:38:23.483Z,5.20
2022-08-07T19:40:58.539Z,5.10
2022-08-07T19:43:48.638Z,4.45
2022-08-07T19:46:22.312Z,5.22
2022-08-07T19:49:02.925Z,5.25
2022-08-07T19:51:51.968Z,5.00
2022-08-07T19:54:32.983Z,5.28
2022-08-07T19:58:02.755Z,5.40
2022-08-07T19:59:59.413Z,5.25
2022-08-07T20:02:39.891Z,5.63
2022-08-07T20:06:00.365Z,5.38
2022-08-07T20:08:30.127Z,6.35
2022-08-07T20:11:10.291Z,6.53
2022-08-07T20:13:50.168Z,4.65
2022-08-07T20:16:32.204Z,5.95
2022-08-07T20:19:10.555Z,6.15
2022-08-07T20:21:46.643Z,5.03
2022-08-07T20:24:35.894Z,5.03
2022-08-07T20:27:11.839Z,5.63
2022-08-07T20:29:56.734Z,6.00
2022-08-07T20:32:40.217Z,5.90
2022-08-07T20:35:16.023Z,5.78
2022-08-07T20:37:57.758Z,6.13
2022-08-07T20:40:32.741Z,5.95
2022-08-07T20:43:03.705Z,5.68
2022-08-07T20:46:26.874Z,5.82
2022-08-07T20:48:30.770Z,5.28
2022-08-07T20:51:03.174Z,7.93
2022-08-07T20:54:04.369Z,5.50
2022-08-07T20:56:34.549Z,5.40
2022-08-07T20:59:06.004Z,6.65
2022-08-07T21:01:45.337Z,5.35
2022-08-07T21:04:22.215Z,6.40
2022-08-07T21:06:53.632Z,5.60
2022-08-07T21:09:24.555Z,5.80
2022-08-07T21:11:57.470Z,5.68
2022-08-07T21:14:34.839Z,5.20
2022-08-07T21:18:03.404Z,6.43
2022-08-07T21:20:00.796Z,5.88
2022-08-07T21:22:53.517Z,5.85
2022-08-07T21:25:38.643Z,6.05
2022-08-07T21:28:16.881Z,5.93
2022-08-07T21:30:50.228Z,6.60
2022-08-07T21:33:22.825Z,5.72
2022-08-07T21:36:11.925Z,6.38
2022-08-07T21:39:46.259Z,7.63
2022-08-07T21:42:10.678Z,6.05
2022-08-07T21:44:55.302Z,6.35
2022-08-07T21:47:46.651Z,6.70
2022-08-07T21:50:25.153Z,6.13
2022-08-07T21:53:07.759Z,6.22
2022-08-07T21:55:47.451Z,7.97
2022-08-07T21:58:40.130Z,6.30
2022-08-07T22:02:11.361Z,6.90
2022-08-07T22:04:35.212Z,8.63
2022-08-07T22:07:20.382Z,6.80
2022-08-07T22:09:55.476Z,7.30
2022-08-07T22:12:32.363Z,6.65
2022-08-07T22:16:38.995Z,7.75
2022-08-07T22:18:07.024Z,8.88
2022-08-07T22:21:01.414Z,8.10
2022-08-07T22:23:52.529Z,7.93
2022-08-07T22:26:52.958Z,7.87
2022-08-07T22:29:47.330Z,8.10
2022-08-07T22:32:52.873Z,8.07
2022-08-07T22:35:23.316Z,9.38
2022-08-07T22:38:07.928Z,9.02
2022-08-07T22:40:52.498Z,9.57
2022-08-07T22:43:44.258Z,8.10
2022-08-07T22:47:02.483Z,8.70
2022-08-07T22:49:51.619Z,9.85
2022-08-07T22:55:30.201Z,9.00
2022-08-07T22:57:59.584Z,9.02
2022-08-07T23:00:40.625Z,8.40
2022-08-07T23:03:58.548Z,9.75
2022-08-07T23:06:52.078Z,9.25
2022-08-07T23:10:06.206Z,9.43
2022-08-07T23:13:06.305Z,8.93
2022-08-07T23:16:07.148Z,9.48
2022-08-07T23:19:16.251Z,9.05
2022-08-07T23:22:04.130Z,9.73
2022-08-07T23:24:45.462Z,8.88
2022-08-07T23:28:21.310Z,8.73
2022-08-07T23:31:06.832Z,10.38
2022-08-07T23:34:36.660Z,8.70
2022-08-07T23:37:19.986Z,9.23
2022-08-07T23:40:11.458Z,9.52
2022-08-07T23:42:53.430Z,9.32
2022-08-07T23:46:01.776Z,8.98
2022-08-07T23:48:40.710Z,10.02
2022-08-07T23:53:01.972Z,9.32
2022-08-07T23:54:20.039Z,10.15
2022-08-07T23:57:28.005Z,10.35
